Tenaha, TX (75974)

6:53 PM CST on January 30, 2015 (GMT -0600)
Center, TX | Change Station
CLOSE
Current Station
Personal Weather Station
Location: Center, TX
Elevation: 348 ft
Nearby Weather Stations
Active Advisory: Flood Warning

Elev 348 ft 31.80 °N, 94.26 °W | Updated 2 seconds ago

Partly Cloudy
Partly Cloudy
47.3 °F
Feels Like 47 °F
N
0.0
Wind Variable Wind from East
Gusts 0.0 mph

Today
High -- | Low -- °F
--% Chance of Precip.
Yesterday
High -- | Low -- °F
Precip. -- in
7:11 AM 5:49 PM
Waxing Gibbous, 86% visible
Pressure 30.35 in
Visibility 10.0 miles
Clouds Clear
Windchill 47 °F
Dew Point 33 °F
Humidity 60%
Rainfall 0.00 in
Snow Depth Not available.
UV 0 out of 12
Pollen 7.60 out of 12
Air Quality Not available.
Flu Activity Not available.
METAR KOCH 310035Z AUTO 08004KT 10SM CLR 11/M01 A3035 RMK AO1

More Conditions Fewer Conditions

Pressure 30.35 in
Visibility 10.0 miles
Clouds Clear
Windchill 47 °F
Dew Point 33 °F
Humidity 60%
Rainfall 0.00 in
Snow Depth Not available.
UV 0 out of 12
Pollen 7.60 out of 12
Air Quality Not available.
Flu Activity Not available.
METAR KOCH 310035Z AUTO 08004KT 10SM CLR 11/M01 A3035 RMK AO1

More Conditions Fewer Conditions

10-Day Weather Forecast

Almanac

Astronomy

Jan. 30, 2015 Rise Set
Actual Time
Civil Twilight
Nautical Twilight
Astronomical Twilight
Moon
Length of Visible Light
Length of Day
Tomorrow will be .
, % of the Moon is Illuminated

Today's Extremes

State Highs State Lows

Community

WunderPhotos

Upload Photos

1,791,942 photos uploaded!

WunderBlogs® & News

Nearby

Air Quality

  Air Quality AQ Index Pollutant
Not available.

Snow Depth

Station Depth Elevation

Earthquake Activity

City Distance Mag. Time & Date
Minimum magnitude displayed is 2.5.

Coastal Water Temperatures

Place Temperature

Nearby Weather Stations